Hurley, WI (54534)

2:04 AM CDT on July 01, 2015 (GMT -0500)
North of US 2 | | Change Station
CLOSE
Current Station
Personal Weather Station
Location: Ironwood, MI
Elevation: 1490 ft
Nearby Weather Stations

Elev 1490 ft 46.47 °N, 90.15 °W | Updated 26 seconds ago

Clear
Clear
41.2 °F
Feels Like 41 °F
N
0.0
Wind Variable Wind from NE
Gusts 0.0 mph

Today
High -- | Low -- °F
--% Chance of Precip.
Yesterday
High -- | Low -- °F
Precip. -- in
5:11 AM 8:57 PM
Waxing Gibbous, 99% visible
Pressure 29.97 in
Visibility 1.2 miles
Clouds Clear
Windchill 41 °F
Dew Point 41 °F
Humidity 99%
Rainfall 0.00 in
Snow Depth Not available.
UV 0.0 out of 12
Pollen 4.60 out of 12
Air Quality Not available.
Flu Activity Not available.
METAR KIWD 010655Z AUTO 00000KT 1 1/4SM CLR 04/03 A2997 RMK AO1

More Conditions Fewer Conditions

Pressure 29.97 in
Visibility 1.2 miles
Clouds Clear
Windchill 41 °F
Dew Point 41 °F
Humidity 99%
Rainfall 0.00 in
Snow Depth Not available.
UV 0.0 out of 12
Pollen 4.60 out of 12
Air Quality Not available.
Flu Activity Not available.
METAR KIWD 010655Z AUTO 00000KT 1 1/4SM CLR 04/03 A2997 RMK AO1

More Conditions Fewer Conditions

10-Day Weather Forecast

×

Almanac

Astronomy

Jul. 01, 2015 Rise Set
Actual Time
Civil Twilight
Nautical Twilight
Astronomical Twilight
Moon
Length of Visible Light
Length of Day
Tomorrow will be .
, % of the Moon is Illuminated

Today's Extremes

State Highs State Lows

Community

WunderPhotos

Upload Photos

1,834,163 photos uploaded!

WunderBlogs® & News

Nearby

Air Quality

  Air Quality AQ Index Pollutant
Not available.

Snow Depth

Station Depth Elevation

Earthquake Activity

City Distance Mag. Time & Date
Minimum magnitude displayed is 2.5.

Coastal Water Temperatures

Place Temperature

Stations

Nearby Weather Stations

Station Location Temp. Windchill Dew Point Humidity Wind Precip. Elev Updated Type